Time;durP1;ratioP1;P1;durP2;ratioP2;P2;SDS_P1;SDS_P2;PMS_P1;PMS_P2;Temp;Humidity;BMP_temperature;BMP_pressure;BME280_temperature;BME280_humidity;BME280_pressure;Samples;Min_cycle;Max_cycle;Signal;HPM_P1;HPM_P2
2022/10/28 00:00:32;;;;;;;;;13.75;9.25;;;;;20.23;56.37;101122.88;5085254;27;70421;-53
2022/10/28 00:03:01;;;;;;;;;15.00;9.00;;;;;20.23;56.82;101119.38;5069639;27;56225;-54
2022/10/28 00:05:27;;;;;;;;;14.00;8.75;;;;;20.24;56.58;101113.13;5069426;28;45316;-54
2022/10/28 00:07:53;;;;;;;;;14.75;9.75;;;;;20.23;56.33;101114.06;5075715;27;46361;-57
2022/10/28 00:10:18;;;;;;;;;10.25;9.00;;;;;20.24;56.40;101107.81;5071017;28;50129;-54
2022/10/28 00:12:43;;;;;;;;;10.00;10.00;;;;;20.25;56.56;101109.50;5072912;27;45516;-55
2022/10/28 00:15:09;;;;;;;;;12.00;6.00;;;;;20.25;56.34;101106.84;5062109;28;68989;-55
2022/10/28 00:17:34;;;;;;;;;12.50;8.25;;;;;20.25;56.42;101106.84;5077202;27;46093;-54
2022/10/28 00:20:00;;;;;;;;;11.25;10.75;;;;;20.24;56.71;101105.16;5072230;27;45325;-54
2022/10/28 00:22:26;;;;;;;;;46.25;38.25;;;;;20.24;56.67;101107.81;5074272;28;45307;-53
2022/10/28 00:24:51;;;;;;;;;14.50;12.50;;;;;20.23;56.27;101104.28;5078403;27;45752;-54
2022/10/28 00:27:17;;;;;;;;;10.75;9.50;;;;;20.23;56.39;101112.25;5068330;28;67725;-49
2022/10/28 00:29:42;;;;;;;;;13.00;10.00;;;;;20.22;56.64;101110.56;5071076;28;45519;-52
2022/10/28 00:32:07;;;;;;;;;15.75;8.75;;;;;20.22;56.85;101117.66;5066505;28;56896;-54
2022/10/28 00:34:33;;;;;;;;;11.00;8.50;;;;;20.21;56.83;101119.47;5064036;28;70993;-50
2022/10/28 00:36:58;;;;;;;;;9.00;7.50;;;;;20.19;56.87;101112.53;5071525;27;72906;-55
2022/10/28 00:39:25;;;;;;;;;8.50;7.00;;;;;20.18;56.85;101118.78;5067570;28;45560;-52
2022/10/28 00:41:55;;;;;;;;;13.50;7.25;;;;;20.18;56.79;101114.31;5078574;27;45456;-54
2022/10/28 00:44:42;;;;;;;;;8.00;8.00;;;;;20.18;56.92;101122.28;5073216;27;45475;-55
2022/10/28 00:47:17;;;;;;;;;12.25;9.50;;;;;20.18;56.89;101124.09;5069733;28;46809;-51
2022/10/28 00:49:44;;;;;;;;;9.75;8.50;;;;;20.16;56.95;101113.56;5061341;28;45388;-53
2022/10/28 00:52:17;;;;;;;;;7.00;6.00;;;;;20.15;56.86;101114.53;5075876;28;45344;-52
2022/10/28 00:54:44;;;;;;;;;15.75;10.00;;;;;20.14;57.00;101111.97;5072167;28;45382;-50
2022/10/28 00:57:13;;;;;;;;;12.00;8.00;;;;;20.12;56.76;101101.44;5072407;27;45442;-53
2022/10/28 00:59:41;;;;;;;;;12.00;9.00;;;;;20.13;56.61;101105.78;5081646;27;45293;-53
2022/10/28 01:02:07;;;;;;;;;12.25;8.50;;;;;20.12;56.85;101103.25;5066046;27;45651;-53
2022/10/28 01:04:32;;;;;;;;;9.00;7.75;;;;;20.12;56.74;101097.94;5066712;28;64683;-50
2022/10/28 01:06:59;;;;;;;;;9.25;7.75;;;;;20.09;56.70;101097.13;5074250;28;45637;-52
2022/10/28 01:09:24;;;;;;;;;10.75;9.00;;;;;20.04;56.93;101093.94;5070161;27;45280;-50
2022/10/28 01:12:13;;;;;;;;;17.50;9.50;;;;;20.03;56.70;101099.34;5062047;28;68849;-50
2022/10/28 01:15:06;;;;;;;;;10.00;6.75;;;;;20.01;57.10;101095.91;5073015;27;45668;-51
2022/10/28 01:17:57;;;;;;;;;9.75;6.25;;;;;19.99;57.16;101104.00;5071085;27;47322;-54
2022/10/28 01:20:44;;;;;;;;;7.25;6.50;;;;;19.99;56.87;101097.78;5058624;28;45887;-50
2022/10/28 01:23:25;;;;;;;;;22.25;18.50;;;;;19.97;57.07;101097.88;5067354;27;45347;-55
2022/10/28 01:26:06;;;;;;;;;12.00;8.25;;;;;19.96;56.91;101098.00;5076279;28;45591;-55
2022/10/28 01:28:40;;;;;;;;;8.25;7.00;;;;;19.95;57.13;101097.13;5069286;27;45409;-53
2022/10/28 01:31:20;;;;;;;;;7.75;6.25;;;;;19.93;57.23;101099.03;5067658;28;45338;-52
2022/10/28 01:33:51;;;;;;;;;7.00;5.00;;;;;19.92;57.00;101094.69;5065505;28;46800;-55
2022/10/28 01:36:47;;;;;;;;;10.00;5.50;;;;;19.90;56.90;101086.81;5066170;28;45488;-55
2022/10/28 01:39:13;;;;;;;;;12.00;6.00;;;;;19.90;57.23;101091.25;5034529;28;45536;-52
2022/10/28 01:41:52;;;;;;;;;7.50;7.00;;;;;19.88;57.23;101099.31;5067245;28;45399;-51
2022/10/28 01:44:31;;;;;;;;;7.75;6.00;;;;;19.89;57.05;101086.91;5064343;28;45455;-49
2022/10/28 01:47:08;;;;;;;;;8.75;8.00;;;;;19.89;57.07;101081.56;5072390;27;46161;-52
2022/10/28 01:49:42;;;;;;;;;12.25;9.25;;;;;19.86;57.23;101076.44;5075645;28;45599;-55
2022/10/28 01:52:12;;;;;;;;;10.25;6.50;;;;;19.86;57.07;101081.75;5071988;28;45434;-56
2022/10/28 01:54:40;;;;;;;;;9.00;6.25;;;;;19.83;56.95;101077.50;5066572;28;45427;-55
2022/10/28 01:57:05;;;;;;;;;9.50;6.50;;;;;19.83;57.02;101073.97;5069819;27;45406;-54
2022/10/28 01:59:33;;;;;;;;;7.25;6.00;;;;;19.81;56.96;101071.41;5080696;27;47023;-58
2022/10/28 02:01:58;;;;;;;;;7.50;6.00;;;;;19.81;57.04;101075.88;5078370;27;73236;-54
2022/10/28 02:04:24;;;;;;;;;9.00;6.50;;;;;19.82;57.36;101077.59;5069999;27;69231;-59
2022/10/28 02:06:52;;;;;;;;;6.00;6.00;;;;;19.82;57.10;101089.06;5068585;28;60972;-53
2022/10/28 02:09:27;;;;;;;;;9.00;6.00;;;;;19.81;57.31;101075.88;5076247;27;46375;-54
2022/10/28 02:12:02;;;;;;;;;10.00;6.75;;;;;19.80;57.44;101080.34;5069791;27;45454;-52
2022/10/28 02:15:09;;;;;;;;;9.50;5.50;;;;;19.79;57.44;101070.63;5060464;28;45541;-50
2022/10/28 02:17:48;;;;;;;;;7.00;6.25;;;;;19.78;57.48;101074.25;5038241;28;45372;-51
2022/10/28 02:20:19;;;;;;;;;7.00;7.00;;;;;19.77;57.42;101067.22;5071266;27;45513;-54
2022/10/28 02:22:54;;;;;;;;;11.00;6.75;;;;;19.78;57.29;101081.34;5069304;28;45466;-55
2022/10/28 02:25:29;;;;;;;;;8.25;6.75;;;;;19.76;57.04;101065.53;5074344;27;45492;-53
2022/10/28 02:28:02;;;;;;;;;10.75;8.25;;;;;19.76;56.67;101062.88;5069441;27;45502;-54
2022/10/28 02:30:46;;;;;;;;;7.00;6.25;;;;;19.75;57.46;101068.28;5067115;27;46307;-55
2022/10/28 02:33:17;;;;;;;;;10.00;8.75;;;;;19.69;57.39;101059.69;5072474;28;45557;-54
2022/10/28 02:35:47;;;;;;;;;9.75;7.75;;;;;19.72;57.09;101067.50;5071989;28;45397;-55
2022/10/28 02:38:17;;;;;;;;;8.50;7.00;;;;;19.71;56.96;101065.78;5066621;28;45268;-54
2022/10/28 02:40:49;;;;;;;;;8.75;5.25;;;;;19.67;57.10;101061.59;5078362;27;46482;-50
2022/10/28 02:43:16;;;;;;;;;7.00;6.25;;;;;19.64;57.36;101060.94;5064709;27;45722;-53
2022/10/28 02:45:44;;;;;;;;;9.75;4.75;;;;;19.61;57.36;101067.25;5069959;27;65863;-53
2022/10/28 02:48:12;;;;;;;;;6.00;5.75;;;;;19.60;57.42;101062.91;5072775;27;45422;-53
2022/10/28 02:50:42;;;;;;;;;8.50;7.00;;;;;19.56;57.43;101063.19;5083934;27;45570;-53
2022/10/28 02:53:14;;;;;;;;;7.00;6.00;;;;;19.58;57.51;101064.78;5077912;28;45284;-55
2022/10/28 02:55:42;;;;;;;;;6.25;5.75;;;;;19.58;57.15;101063.94;5057077;28;45253;-55
2022/10/28 02:58:09;;;;;;;;;11.00;7.00;;;;;19.56;57.36;101058.72;5071520;28;45663;-55
2022/10/28 03:00:34;;;;;;;;;10.75;6.75;;;;;19.53;57.67;101065.06;5072008;27;45810;-54
2022/10/28 03:02:59;;;;;;;;;8.75;4.50;;;;;19.53;57.45;101058.91;5062222;27;60266;-53
2022/10/28 03:05:25;;;;;;;;;10.50;6.00;;;;;19.54;57.54;101065.91;5067985;28;67359;-54
2022/10/28 03:07:50;;;;;;;;;7.25;6.00;;;;;19.53;57.46;101061.56;5068449;28;45355;-51
2022/10/28 03:10:16;;;;;;;;;10.25;6.00;;;;;19.51;57.71;101059.00;5076569;28;69529;-54
2022/10/28 03:12:41;;;;;;;;;9.25;7.75;;;;;19.49;57.16;101054.72;5079197;28;45293;-54
2022/10/28 03:15:07;;;;;;;;;11.50;7.25;;;;;19.48;57.60;101053.88;5068345;27;69420;-54
2022/10/28 03:17:32;;;;;;;;;12.00;8.00;;;;;19.47;57.79;101046.00;5074436;28;45426;-53
2022/10/28 03:19:57;;;;;;;;;6.75;5.75;;;;;19.43;57.24;101042.66;5071195;27;66580;-51
2022/10/28 03:22:23;;;;;;;;;8.75;7.00;;;;;19.41;57.46;101039.25;5061566;27;67819;-51
2022/10/28 03:24:48;;;;;;;;;8.00;4.50;;;;;19.41;57.64;101041.91;5078982;27;45280;-51
2022/10/28 03:27:13;;;;;;;;;8.75;6.00;;;;;19.40;57.91;101042.00;5067287;27;73128;-52
2022/10/28 03:29:39;;;;;;;;;7.50;5.75;;;;;19.39;57.43;101034.97;5079680;27;46219;-54
2022/10/28 03:32:04;;;;;;;;;14.00;7.00;;;;;19.34;57.53;101028.16;5070364;27;72167;-55
2022/10/28 03:34:29;;;;;;;;;8.00;6.00;;;;;19.33;57.82;101030.88;5079533;28;45451;-55
2022/10/28 03:36:55;;;;;;;;;11.50;6.25;;;;;19.31;57.90;101024.81;5075575;27;61727;-54
2022/10/28 03:39:20;;;;;;;;;9.00;4.00;;;;;19.30;57.94;101023.09;5074261;28;75733;-52
2022/10/28 03:41:45;;;;;;;;;8.25;6.25;;;;;19.29;57.93;101029.38;5073533;27;66783;-52
2022/10/28 03:44:11;;;;;;;;;8.00;6.25;;;;;19.28;57.64;101030.31;5071306;28;62887;-52
2022/10/28 03:46:36;;;;;;;;;8.25;5.50;;;;;19.28;58.10;101022.34;5064202;28;67579;-53
2022/10/28 03:49:02;;;;;;;;;6.75;5.75;;;;;19.27;57.94;101025.94;5064654;27;67947;-51
2022/10/28 03:51:27;;;;;;;;;9.75;6.00;;;;;19.27;57.77;101013.53;5081552;27;45680;-52
2022/10/28 03:53:53;;;;;;;;;6.75;5.00;;;;;19.28;57.85;101028.53;5077030;27;63502;-50
2022/10/28 03:56:19;;;;;;;;;12.50;7.00;;;;;19.28;57.45;101025.88;5073625;27;60620;-53
2022/10/28 03:58:47;;;;;;;;;8.50;7.00;;;;;19.27;57.95;101025.94;5074237;27;45726;-52
2022/10/28 04:01:12;;;;;;;;;9.25;6.25;;;;;19.26;57.55;101018.94;5091053;27;45275;-52
2022/10/28 04:03:38;;;;;;;;;8.00;6.50;;;;;19.25;58.04;101020.72;5078754;28;45232;-52
2022/10/28 04:06:03;;;;;;;;;9.75;7.00;;;;;19.25;57.88;101012.78;5066316;27;45535;-52
2022/10/28 04:08:29;;;;;;;;;7.00;5.00;;;;;19.25;57.52;101025.19;5074224;28;46282;-51
2022/10/28 04:10:54;;;;;;;;;6.75;5.25;;;;;19.25;57.87;101011.94;5067258;27;45453;-50
2022/10/28 04:13:19;;;;;;;;;7.50;5.00;;;;;19.25;57.81;101017.25;5063663;27;66771;-51
2022/10/28 04:15:45;;;;;;;;;8.25;6.00;;;;;19.25;57.64;101019.88;5066572;27;57552;-49
2022/10/28 04:18:11;;;;;;;;;9.25;6.00;;;;;19.25;57.57;101009.28;5068141;27;75644;-51
2022/10/28 04:20:36;;;;;;;;;10.00;6.00;;;;;19.26;57.63;101018.94;5065732;28;45561;-52
2022/10/28 04:23:01;;;;;;;;;7.00;5.00;;;;;19.25;57.59;101012.78;5064466;28;45347;-53
2022/10/28 04:25:27;;;;;;;;;10.50;5.50;;;;;19.25;58.00;101017.25;5077372;28;61687;-54
2022/10/28 04:27:53;;;;;;;;;6.50;5.50;;;;;19.25;57.90;101017.25;5080560;27;46967;-56
2022/10/28 04:30:19;;;;;;;;;11.25;6.25;;;;;19.26;57.73;101026.88;5070484;27;45545;-55
2022/10/28 04:32:44;;;;;;;;;8.75;6.00;;;;;19.24;57.78;101029.63;5074876;27;45513;-53
2022/10/28 04:35:10;;;;;;;;;10.25;6.50;;;;;19.26;57.93;101022.44;5067335;27;45416;-54
2022/10/28 04:37:36;;;;;;;;;9.00;7.00;;;;;19.26;57.22;101016.28;5065329;27;45477;-54
2022/10/28 04:40:01;;;;;;;;;9.25;6.25;;;;;19.27;57.76;101021.50;5075639;27;45521;-53
2022/10/28 04:42:26;;;;;;;;;6.50;6.00;;;;;19.28;57.63;101023.22;5065127;27;65599;-55
2022/10/28 04:44:52;;;;;;;;;5.75;4.75;;;;;19.27;57.03;101013.53;5069835;27;45702;-54
2022/10/28 04:47:17;;;;;;;;;2.00;0.00;;;;;19.25;57.47;101009.28;5069487;28;74552;-55
2022/10/28 04:49:43;;;;;;;;;8.25;7.75;;;;;19.26;57.41;101013.63;5070821;28;62733;-56
2022/10/28 04:52:09;;;;;;;;;6.00;5.75;;;;;19.25;57.32;101015.44;5077670;27;57376;-56
2022/10/28 04:54:34;;;;;;;;;9.25;5.75;;;;;19.24;57.22;101012.84;5063426;28;45291;-53
2022/10/28 04:56:59;;;;;;;;;8.25;6.25;;;;;19.22;57.32;101006.78;5059925;28;46735;-57
2022/10/28 04:59:25;;;;;;;;;5.50;5.50;;;;;19.21;57.52;101005.94;5066860;28;67796;-53
2022/10/28 05:01:50;;;;;;;;;7.50;6.00;;;;;19.21;57.29;101008.59;5067195;27;65216;-55
2022/10/28 05:04:15;;;;;;;;;10.75;7.00;;;;;19.21;57.44;101007.72;5068298;28;73173;-54
2022/10/28 05:06:41;;;;;;;;;8.75;7.00;;;;;19.23;57.40;101005.84;5083096;27;48338;-53
2022/10/28 05:09:06;;;;;;;;;9.50;7.00;;;;;19.23;57.46;101006.72;5082040;27;59586;-55
2022/10/28 05:11:31;;;;;;;;;11.00;6.50;;;;;19.23;57.35;101004.06;5072892;27;51484;-53
2022/10/28 05:13:57;;;;;;;;;12.75;7.75;;;;;19.21;57.30;101008.59;5060837;27;69366;-51
2022/10/28 05:16:22;;;;;;;;;8.25;6.75;;;;;19.21;57.09;101010.38;5076104;27;45434;-52
2022/10/28 05:18:47;;;;;;;;;7.75;6.00;;;;;19.20;56.97;101008.69;5079884;27;73165;-53
2022/10/28 05:21:13;;;;;;;;;8.00;6.00;;;;;19.18;56.89;101007.94;5072829;27;66760;-55
2022/10/28 05:23:38;;;;;;;;;8.50;6.25;;;;;19.18;57.15;101013.25;5079775;28;59085;-55
2022/10/28 05:26:04;;;;;;;;;8.50;6.75;;;;;19.15;57.26;101012.44;5074731;27;75545;-53
2022/10/28 05:28:29;;;;;;;;;9.00;7.00;;;;;19.15;57.49;101007.13;5081789;27;45427;-56
2022/10/28 05:30:54;;;;;;;;;7.50;6.25;;;;;19.15;57.40;101008.94;5081308;27;59528;-55
2022/10/28 05:33:20;;;;;;;;;9.75;7.00;;;;;19.17;57.14;101012.34;5078293;27;70378;-53
2022/10/28 05:35:45;;;;;;;;;8.75;7.00;;;;;19.17;56.86;101015.00;5075040;27;45476;-55
2022/10/28 05:38:11;;;;;;;;;11.50;5.75;;;;;19.19;57.10;101010.47;5069134;27;45463;-55
2022/10/28 05:40:36;;;;;;;;;6.00;5.00;;;;;19.19;57.35;101014.94;5068886;28;46115;-52
2022/10/28 05:43:02;;;;;;;;;7.50;6.00;;;;;19.20;56.76;101011.34;5069536;27;46437;-52
2022/10/28 05:45:28;;;;;;;;;8.50;5.50;;;;;19.18;56.97;101008.78;5071702;28;46123;-55
2022/10/28 05:47:53;;;;;;;;;8.50;6.25;;;;;19.21;56.99;101005.06;5077774;27;45350;-54
2022/10/28 05:50:19;;;;;;;;;8.50;5.25;;;;;19.21;57.13;101005.94;5103781;27;45448;-55
2022/10/28 05:52:55;;;;;;;;;7.75;6.00;;;;;19.21;56.61;100994.47;5067249;27;45438;-56
2022/10/28 05:55:23;;;;;;;;;7.50;6.00;;;;;19.19;56.69;101005.16;5086664;27;45509;-53
2022/10/28 05:57:49;;;;;;;;;11.50;6.25;;;;;19.19;57.11;101005.16;5065663;27;45818;-51
2022/10/28 06:00:16;;;;;;;;;11.25;8.00;;;;;19.16;56.97;101011.50;5067650;27;45422;-53
2022/10/28 06:02:42;;;;;;;;;6.75;6.25;;;;;19.18;56.88;101013.25;5077692;28;45353;-49
2022/10/28 06:05:08;;;;;;;;;11.50;6.25;;;;;19.18;56.85;101014.09;5065004;27;72592;-50
2022/10/28 06:07:34;;;;;;;;;6.25;5.25;;;;;19.18;57.02;101010.59;5076216;27;45493;-55
2022/10/28 06:10:00;;;;;;;;;8.50;6.25;;;;;19.18;56.44;101015.88;5075196;27;45358;-55
2022/10/28 06:12:25;;;;;;;;;14.25;7.00;;;;;19.14;56.68;101017.84;5064524;28;45467;-54
2022/10/28 06:14:51;;;;;;;;;6.00;6.00;;;;;19.15;56.47;101016.91;5076078;27;46191;-53
2022/10/28 06:17:16;;;;;;;;;8.25;6.50;;;;;19.13;56.85;101017.00;5079580;27;69440;-55
2022/10/28 06:19:41;;;;;;;;;8.50;6.75;;;;;19.11;56.52;101023.34;5078432;27;45677;-54
2022/10/28 06:22:07;;;;;;;;;13.75;8.25;;;;;19.11;56.59;101026.00;5073793;27;60492;-55
2022/10/28 06:24:32;;;;;;;;;10.25;7.00;;;;;19.11;56.69;101026.84;5062236;28;75097;-56
2022/10/28 06:26:57;;;;;;;;;8.75;7.00;;;;;19.11;56.77;101031.31;5073873;27;46165;-54
2022/10/28 06:29:23;;;;;;;;;7.50;6.25;;;;;19.06;57.04;101020.09;5066300;27;66060;-53
2022/10/28 06:31:48;;;;;;;;;7.75;4.25;;;;;19.08;56.87;101031.47;5069318;28;54233;-55
2022/10/28 06:34:13;;;;;;;;;9.00;6.00;;;;;19.08;56.98;101032.31;5069644;28;72875;-61
2022/10/28 06:36:39;;;;;;;;;12.00;8.25;;;;;19.07;56.79;101033.28;5070316;27;71355;-61
2022/10/28 06:39:05;;;;;;;;;15.75;8.50;;;;;19.09;56.81;101044.66;5074826;27;45539;-61
2022/10/28 06:41:30;;;;;;;;;10.25;6.00;;;;;19.09;56.74;101036.69;5095556;27;45459;-61
2022/10/28 06:43:56;;;;;;;;;10.00;8.25;;;;;19.09;56.69;101047.31;5070884;28;69838;-61
2022/10/28 06:46:21;;;;;;;;;9.00;6.25;;;;;19.10;56.96;101056.09;5067341;27;63315;-62
2022/10/28 06:48:47;;;;;;;;;14.75;6.00;;;;;19.11;56.67;101047.22;5069352;27;45335;-61
2022/10/28 06:51:12;;;;;;;;;15.00;10.25;;;;;19.11;56.88;101061.31;5063936;28;61193;-62
2022/10/28 06:53:37;;;;;;;;;9.00;7.00;;;;;19.13;56.42;101061.25;5072705;28;45526;-62
2022/10/28 06:56:03;;;;;;;;;11.75;9.00;;;;;19.12;56.81;101063.06;5078091;28;73176;-62
2022/10/28 06:58:28;;;;;;;;;9.00;6.75;;;;;19.14;56.54;101073.56;5074707;27;45509;-62
2022/10/28 07:00:54;;;;;;;;;11.50;8.00;;;;;19.14;56.66;101077.09;5068929;27;55838;-61
2022/10/28 07:03:20;;;;;;;;;15.25;8.00;;;;;19.14;56.79;101079.72;5065840;28;45329;-60
2022/10/28 07:05:46;;;;;;;;;10.75;7.00;;;;;19.15;56.74;101078.78;5074997;27;45271;-63
2022/10/28 07:08:13;;;;;;;;;11.75;9.50;;;;;19.16;56.45;101080.50;5068895;27;45303;-61
2022/10/28 07:10:38;;;;;;;;;13.50;7.00;;;;;19.15;56.70;101096.50;5080827;27;45564;-61
2022/10/28 07:13:04;;;;;;;;;8.25;8.25;;;;;19.18;56.76;101101.63;5075276;27;46418;-62
2022/10/28 07:15:29;;;;;;;;;8.75;8.00;;;;;19.19;56.42;101105.13;5075162;28;45628;-61
2022/10/28 07:17:56;;;;;;;;;13.25;8.75;;;;;19.16;56.40;101100.88;5074338;28;45356;-64
2022/10/28 07:20:22;;;;;;;;;8.75;7.50;;;;;19.14;56.54;101105.38;5071238;27;45457;-63
2022/10/28 07:22:55;;;;;;;;;12.25;8.00;;;;;19.15;56.88;101107.94;5073056;27;45684;-63
2022/10/28 07:25:20;;;;;;;;;10.50;8.00;;;;;19.15;56.32;101104.44;5075674;27;46918;-63
2022/10/28 07:27:45;;;;;;;;;12.25;8.25;;;;;19.16;56.45;101111.47;5072450;28;60985;-62
2022/10/28 07:30:11;;;;;;;;;8.50;7.25;;;;;19.18;56.29;101114.06;5072427;27;45419;-66
2022/10/28 07:32:36;;;;;;;;;14.25;8.50;;;;;19.17;56.50;101121.13;5072149;27;46326;-64
2022/10/28 07:35:02;;;;;;;;;7.25;6.00;;;;;19.19;56.51;101121.06;5065023;27;48115;-63
2022/10/28 07:37:27;;;;;;;;;10.75;7.00;;;;;19.19;56.38;101127.19;5072458;27;45441;-64
2022/10/28 07:39:52;;;;;;;;;11.00;7.00;;;;;19.20;56.38;101120.97;5085037;27;71400;-64
2022/10/28 07:42:18;;;;;;;;;10.00;7.00;;;;;19.23;56.33;101130.53;5080159;27;60113;-63
2022/10/28 07:44:43;;;;;;;;;15.25;7.00;;;;;19.24;56.41;101134.91;5081623;27;69933;-62
2022/10/28 07:47:08;;;;;;;;;9.00;8.00;;;;;19.26;56.17;101133.88;5070078;27;63797;-58
2022/10/28 07:49:34;;;;;;;;;9.00;7.25;;;;;19.30;56.12;101140.75;5064298;27;67580;-57
2022/10/28 07:51:59;;;;;;;;;11.75;8.50;;;;;19.32;56.31;101144.16;5070004;27;46076;-59
2022/10/28 07:54:24;;;;;;;;;13.00;9.00;;;;;19.35;56.47;101143.97;5075094;28;45335;-58
2022/10/28 07:56:50;;;;;;;;;12.25;7.00;;;;;19.37;55.92;101138.59;5073899;27;45514;-58
2022/10/28 07:59:15;;;;;;;;;11.25;10.00;;;;;19.39;56.38;101143.78;5075084;27;45217;-46
2022/10/28 08:01:40;;;;;;;;;12.00;7.00;;;;;19.42;55.88;101131.19;5087546;27;61149;-47
2022/10/28 08:04:06;;;;;;;;;14.00;8.00;;;;;19.46;55.76;101148.66;5069467;28;66581;-44
2022/10/28 08:06:33;;;;;;;;;9.50;8.00;;;;;19.50;56.25;101139.56;5071101;28;45328;-46
2022/10/28 08:08:58;;;;;;;;;14.75;10.75;;;;;19.54;56.00;101142.91;5070636;27;45854;-48
2022/10/28 08:11:24;;;;;;;;;12.50;9.25;;;;;19.58;55.83;101155.06;5085254;27;45125;-45
2022/10/28 08:13:51;;;;;;;;;13.25;8.50;;;;;19.64;55.78;101161.81;5077936;27;45617;-51
2022/10/28 08:16:16;;;;;;;;;15.75;9.50;;;;;19.69;55.92;101165.06;5069640;28;45403;-46
2022/10/28 08:18:42;;;;;;;;;11.75;10.00;;;;;19.74;55.26;101163.00;5072523;27;45644;-48
2022/10/28 08:21:09;;;;;;;;;14.75;8.00;;;;;19.80;55.46;101170.63;5078509;27;46270;-46
2022/10/28 08:23:35;;;;;;;;;7.25;7.25;;;;;19.84;55.15;101168.66;5079358;27;45346;-51
2022/10/28 08:26:01;;;;;;;;;10.25;7.25;;;;;19.87;55.15;101171.97;5074156;27;45529;-52
2022/10/28 08:28:26;;;;;;;;;10.00;10.00;;;;;19.92;54.69;101171.72;5067878;27;45655;-50
2022/10/28 08:30:51;;;;;;;;;11.50;8.00;;;;;19.97;54.44;101184.72;5077595;27;67793;-51
2022/10/28 08:33:17;;;;;;;;;9.75;8.75;;;;;20.00;54.53;101193.34;5077898;27;73627;-50
2022/10/28 08:35:43;;;;;;;;;12.50;8.25;;;;;20.01;54.12;101189.75;5081587;27;45441;-45
2022/10/28 08:38:08;;;;;;;;;13.00;9.25;;;;;20.05;54.06;101187.78;5072726;27;69747;-53
2022/10/28 08:40:46;;;;;;;;;13.75;8.25;;;;;20.09;53.82;101186.63;5078478;27;60429;-46
2022/10/28 08:43:23;;;;;;;;;14.50;8.00;;;;;20.10;53.74;101189.22;5069495;28;45456;-45
2022/10/28 08:45:56;;;;;;;;;12.00;8.75;;;;;20.14;53.97;101195.19;5070909;27;45474;-47
2022/10/28 08:48:30;;;;;;;;;10.00;8.00;;;;;20.16;54.15;101198.59;5066206;27;45363;-49
2022/10/28 08:51:02;;;;;;;;;13.00;10.00;;;;;20.19;53.80;101209.06;5064043;27;47704;-44
2022/10/28 08:53:33;;;;;;;;;18.00;10.50;;;;;20.24;53.64;101214.13;5077090;27;45708;-46
2022/10/28 08:56:06;;;;;;;;;15.00;8.00;;;;;20.26;54.12;101209.56;5065225;28;45528;-46
2022/10/28 08:58:33;;;;;;;;;11.25;8.50;;;;;20.29;53.87;101212.00;5051916;28;46003;-44
2022/10/28 09:00:59;;;;;;;;;12.50;9.00;;;;;20.31;53.75;101215.44;5079481;27;54972;-50
2022/10/28 09:03:45;;;;;;;;;9.50;9.25;;;;;20.36;53.71;101216.03;5079492;28;51691;-48
2022/10/28 09:06:10;;;;;;;;;10.75;9.00;;;;;20.41;53.71;101234.34;5071087;28;67015;-48
2022/10/28 09:08:47;;;;;;;;;12.50;9.50;;;;;20.44;53.61;101247.47;5071857;27;45194;-47
2022/10/28 09:11:34;;;;;;;;;15.00;9.25;;;;;20.46;53.52;101241.09;5070175;28;46207;-49
2022/10/28 09:14:18;;;;;;;;;13.75;8.00;;;;;20.49;53.74;101240.91;5079768;27;45729;-48
2022/10/28 09:16:46;;;;;;;;;12.25;9.00;;;;;20.51;53.24;101235.50;5071882;28;45488;-46
2022/10/28 09:19:30;;;;;;;;;15.25;9.25;;;;;20.53;53.06;101232.75;5075760;27;45443;-51
2022/10/28 09:22:28;;;;;;;;;10.75;9.75;;;;;20.56;53.04;101221.94;5079412;27;45364;-48
2022/10/28 09:24:55;;;;;;;;;22.75;19.25;;;;;20.60;52.83;101242.91;5053254;28;45477;-55
2022/10/28 09:27:26;;;;;;;;;24.00;16.50;;;;;20.64;53.28;101225.84;5077106;27;45218;-54
2022/10/28 09:30:21;;;;;;;;;19.25;11.75;;;;;20.67;52.79;101246.94;5062005;27;45433;-50
2022/10/28 09:33:12;;;;;;;;;12.50;9.50;;;;;20.73;53.06;101266.13;5075827;28;47463;-51
2022/10/28 09:35:40;;;;;;;;;22.25;12.50;;;;;20.76;52.52;101263.28;5069370;28;45449;-49
2022/10/28 09:38:20;;;;;;;;;14.75;12.75;;;;;20.79;53.08;101276.41;5075093;27;47209;-47
2022/10/28 09:40:51;;;;;;;;;12.50;8.50;;;;;20.81;52.37;101278.00;5060443;28;45646;-49
2022/10/28 09:43:29;;;;;;;;;12.50;10.00;;;;;20.85;52.54;101276.88;5095385;27;46289;-48
2022/10/28 09:46:00;;;;;;;;;22.50;16.00;;;;;20.90;52.23;101281.06;5069676;28;45272;-47
2022/10/28 09:48:35;;;;;;;;;21.00;14.75;;;;;20.92;52.29;101279.16;5062526;27;45502;-45
2022/10/28 09:51:00;;;;;;;;;28.50;23.00;;;;;20.95;52.15;101273.66;5070840;27;45707;-44
2022/10/28 09:53:39;;;;;;;;;18.00;12.75;;;;;20.99;52.23;101275.16;5069933;27;46602;-47
2022/10/28 09:56:05;;;;;;;;;17.00;12.00;;;;;21.01;52.45;101268.78;5072853;28;45830;-46
2022/10/28 09:58:32;;;;;;;;;15.00;11.00;;;;;21.04;52.45;101257.13;5079030;27;45317;-48
2022/10/28 10:00:57;;;;;;;;;18.75;13.00;;;;;21.09;52.47;101263.00;5071908;27;46768;-52
2022/10/28 10:03:23;;;;;;;;;16.00;12.75;;;;;21.13;52.24;101272.50;5074211;27;62499;-52
2022/10/28 10:05:51;;;;;;;;;16.50;11.50;;;;;21.16;51.97;101266.97;5066589;28;45349;-46
2022/10/28 10:08:19;;;;;;;;;17.00;12.25;;;;;21.19;52.47;101271.25;5062462;27;45529;-46
2022/10/28 10:10:55;;;;;;;;;20.25;14.25;;;;;21.23;51.89;101275.44;5067460;27;45518;-47
2022/10/28 10:13:27;;;;;;;;;17.25;10.50;;;;;21.26;51.81;101301.84;5066462;28;47168;-46
2022/10/28 10:15:56;;;;;;;;;14.25;11.25;;;;;21.29;51.85;101293.69;5066371;27;45521;-46
2022/10/28 10:18:28;;;;;;;;;11.25;9.00;;;;;21.32;52.04;101292.63;5068999;27;45447;-45
2022/10/28 10:20:57;;;;;;;;;14.75;11.00;;;;;21.35;51.84;101300.41;5075533;27;45326;-48
2022/10/28 10:23:31;;;;;;;;;17.50;11.00;;;;;21.37;51.73;101287.84;5062977;28;47237;-46
2022/10/28 10:26:04;;;;;;;;;13.75;10.00;;;;;21.39;51.71;101293.97;5071349;27;45810;-51
2022/10/28 10:28:29;;;;;;;;;13.50;11.25;;;;;21.41;51.83;101294.72;5063584;28;45322;-50
2022/10/28 10:31:04;;;;;;;;;16.00;11.50;;;;;21.40;51.64;101293.84;5068726;27;45286;-48
2022/10/28 10:33:33;;;;;;;;;10.00;8.25;;;;;21.42;51.81;101302.63;5057766;28;48036;-48
2022/10/28 10:36:08;;;;;;;;;12.50;10.75;;;;;21.43;51.83;101298.97;5071832;27;45906;-48
2022/10/28 10:38:34;;;;;;;;;16.00;9.75;;;;;21.45;52.08;101290.88;5061863;28;45303;-49
2022/10/28 10:40:59;;;;;;;;;10.75;10.75;;;;;21.44;51.44;101286.50;5065622;28;45300;-51
2022/10/28 10:43:34;;;;;;;;;14.50;10.25;;;;;21.48;52.00;101295.19;5067713;28;47035;-47
2022/10/28 10:46:17;;;;;;;;;15.75;11.00;;;;;21.49;52.12;101300.41;5068132;28;45412;-46
2022/10/28 10:48:43;;;;;;;;;20.50;15.25;;;;;21.52;51.94;101308.22;5078075;28;68185;-50
2022/10/28 10:51:23;;;;;;;;;21.75;20.25;;;;;21.54;52.23;101308.97;5076993;27;57726;-46
2022/10/28 10:53:51;;;;;;;;;19.50;11.75;;;;;21.55;51.59;101313.34;5068635;28;46467;-48
2022/10/28 10:56:24;;;;;;;;;10.25;9.50;;;;;21.59;51.99;101324.66;5066895;27;45225;-45
2022/10/28 10:58:51;;;;;;;;;13.50;10.50;;;;;21.61;51.71;101328.94;5074609;28;45363;-48
2022/10/28 11:01:25;;;;;;;;;21.00;16.00;;;;;21.65;52.21;101329.59;5070911;28;45710;-49
2022/10/28 11:03:57;;;;;;;;;32.00;22.25;;;;;21.67;51.87;101324.16;5077039;27;46893;-47
2022/10/28 11:06:27;;;;;;;;;19.50;17.25;;;;;21.69;51.83;101331.13;5059340;28;46207;-44
2022/10/28 11:09:17;;;;;;;;;22.00;16.50;;;;;21.73;52.01;101339.78;5079406;27;45442;-47
2022/10/28 11:11:43;;;;;;;;;19.25;17.75;;;;;21.74;51.87;101329.03;5066354;28;45454;-46
2022/10/28 11:14:08;;;;;;;;;11.75;8.75;;;;;21.77;51.50;101334.13;5078101;27;47183;-44
2022/10/28 11:16:49;;;;;;;;;15.75;12.50;;;;;21.80;51.69;101343.75;5074838;28;45341;-51
2022/10/28 11:19:21;;;;;;;;;15.00;14.00;;;;;21.82;51.64;101343.66;5079148;27;45400;-49
2022/10/28 11:22:02;;;;;;;;;16.50;15.75;;;;;21.85;52.18;101349.63;5079014;27;45437;-49
2022/10/28 11:24:41;;;;;;;;;18.50;13.00;;;;;21.86;51.59;101355.81;5078437;27;45579;-50
2022/10/28 11:27:18;;;;;;;;;13.00;8.75;;;;;21.88;51.92;101359.22;5074054;27;45697;-52